createdAt,value
2018-03-25T00:01:49.101Z,56.60
2018-03-25T00:04:20.277Z,56.20
2018-03-25T00:07:03.601Z,56.40
2018-03-25T00:09:34.117Z,56.30
2018-03-25T00:12:03.631Z,55.50
2018-03-25T00:14:33.177Z,55.10
2018-03-25T00:17:03.070Z,55.10
2018-03-25T00:19:32.593Z,55.40
2018-03-25T00:22:05.368Z,56.30
2018-03-25T00:24:34.843Z,55.00
2018-03-25T00:27:08.922Z,56.20
2018-03-25T00:29:38.328Z,56.20
2018-03-25T00:32:20.251Z,56.00
2018-03-25T00:34:52.288Z,55.50
2018-03-25T00:37:21.756Z,55.60
2018-03-25T00:39:51.771Z,55.30
2018-03-25T00:42:22.166Z,55.70
2018-03-25T00:44:51.646Z,56.20
2018-03-25T00:47:21.444Z,55.70
2018-03-25T00:49:51.356Z,56.00
2018-03-25T00:52:21.561Z,55.90
2018-03-25T00:54:51.092Z,55.30
2018-03-25T00:57:24.941Z,55.90
2018-03-25T00:59:54.295Z,55.70
2018-03-25T01:02:27.189Z,55.90
2018-03-25T01:04:57.005Z,56.00
2018-03-25T01:07:28.155Z,56.30
2018-03-25T01:09:58.810Z,56.80
2018-03-25T01:12:41.050Z,56.80
2018-03-25T01:15:10.670Z,56.70
2018-03-25T01:17:40.354Z,56.90
2018-03-25T01:20:10.499Z,56.50
2018-03-25T01:22:40.089Z,56.80
2018-03-25T01:25:10.836Z,56.50
2018-03-25T01:27:40.932Z,57.10
2018-03-25T01:30:10.496Z,56.80
2018-03-25T01:32:43.417Z,56.30
2018-03-25T01:35:13.211Z,56.30
2018-03-25T01:37:44.547Z,57.00
2018-03-25T01:40:14.772Z,56.40
2018-03-25T01:42:57.128Z,56.50
2018-03-25T01:45:27.229Z,56.40
2018-03-25T01:47:56.988Z,56.60
2018-03-25T01:50:27.763Z,56.80
2018-03-25T01:52:57.980Z,56.70
2018-03-25T01:55:27.626Z,56.90
2018-03-25T01:57:59.330Z,57.20
2018-03-25T02:00:29.195Z,57.10
2018-03-25T02:03:02.890Z,57.30
2018-03-25T02:05:34.063Z,57.10
2018-03-25T02:08:05.225Z,57.10
2018-03-25T02:10:35.814Z,57.60
2018-03-25T02:13:24.842Z,57.30
2018-03-25T02:15:55.408Z,57.40
2018-03-25T02:18:25.589Z,57.50
2018-03-25T02:20:56.121Z,57.10
2018-03-25T02:23:26.621Z,57.60
2018-03-25T02:25:57.130Z,57.90
2018-03-25T02:28:28.767Z,58.20
2018-03-25T02:30:58.777Z,58.10
2018-03-25T02:33:28.869Z,58.10
2018-03-25T02:35:59.348Z,58.60
2018-03-25T02:38:29.246Z,58.40
2018-03-25T02:40:59.879Z,58.70
2018-03-25T02:43:30.844Z,58.70
2018-03-25T02:46:00.979Z,58.70
2018-03-25T02:48:32.834Z,58.70
2018-03-25T02:51:04.913Z,58.70
2018-03-25T02:53:36.511Z,58.60
2018-03-25T02:56:07.181Z,58.40
2018-03-25T02:58:38.199Z,59.10
2018-03-25T03:01:08.858Z,58.50
2018-03-25T03:03:38.607Z,58.40
2018-03-25T03:06:09.121Z,58.40
2018-03-25T03:08:39.214Z,58.50
2018-03-25T03:11:08.997Z,58.40
2018-03-25T03:13:40.277Z,58.50
2018-03-25T03:16:10.261Z,58.80
2018-03-25T03:18:40.359Z,58.60
2018-03-25T03:21:10.684Z,58.80
2018-03-25T03:23:42.806Z,58.90
2018-03-25T03:26:12.728Z,58.90
2018-03-25T03:28:46.391Z,58.80
2018-03-25T03:31:16.514Z,58.80
2018-03-25T03:33:49.742Z,58.80
2018-03-25T03:36:19.924Z,58.70
2018-03-25T03:38:51.039Z,58.70
2018-03-25T03:41:21.497Z,58.80
2018-03-25T03:43:55.826Z,59.00
2018-03-25T03:46:25.969Z,59.00
2018-03-25T03:49:00.127Z,59.10
2018-03-25T03:51:31.973Z,59.40
2018-03-25T03:54:03.134Z,59.00
2018-03-25T03:56:33.222Z,58.90
2018-03-25T03:59:04.430Z,59.40
2018-03-25T04:01:35.312Z,59.40
2018-03-25T04:04:17.960Z,59.90
2018-03-25T04:06:48.585Z,59.90
2018-03-25T04:09:18.141Z,60.70
2018-03-25T04:11:48.847Z,60.10
2018-03-25T04:14:18.913Z,60.00
2018-03-25T04:16:49.505Z,60.10
2018-03-25T04:19:19.187Z,60.10
2018-03-25T04:21:49.599Z,59.90
2018-03-25T04:26:50.665Z,60.80
2018-03-25T04:29:32.514Z,60.60
2018-03-25T04:32:02.341Z,61.00
2018-03-25T04:34:32.523Z,60.90
2018-03-25T04:37:02.424Z,61.00
2018-03-25T04:39:32.030Z,61.00
2018-03-25T04:42:04.375Z,61.10
2018-03-25T04:44:35.815Z,61.80
2018-03-25T04:47:06.203Z,61.00
2018-03-25T04:49:36.713Z,60.20
2018-03-25T04:52:06.811Z,61.10
2018-03-25T04:54:36.708Z,60.90
2018-03-25T04:57:07.135Z,60.90
2018-03-25T04:59:40.899Z,61.40
2018-03-25T05:02:12.767Z,61.50
2018-03-25T05:04:45.379Z,62.40
2018-03-25T05:07:15.501Z,62.40
2018-03-25T05:09:45.736Z,62.90
2018-03-25T05:12:16.083Z,62.40
2018-03-25T05:14:47.497Z,61.90
2018-03-25T05:17:17.805Z,61.70
2018-03-25T05:19:51.490Z,61.70
2018-03-25T05:22:22.052Z,62.60
2018-03-25T05:24:55.019Z,62.60
2018-03-25T05:27:25.211Z,62.80
2018-03-25T05:30:08.209Z,63.00
2018-03-25T05:32:38.461Z,62.80
2018-03-25T05:35:09.301Z,63.30
2018-03-25T05:37:40.321Z,63.30
2018-03-25T05:40:11.211Z,63.40
2018-03-25T05:42:41.804Z,63.10
2018-03-25T05:45:12.317Z,63.40
2018-03-25T05:47:43.094Z,63.70
2018-03-25T05:50:13.162Z,63.70
2018-03-25T05:52:44.076Z,63.60
2018-03-25T05:55:16.465Z,63.60
2018-03-25T05:57:46.449Z,63.70
2018-03-25T06:00:17.131Z,63.60
2018-03-25T06:02:47.701Z,64.60
2018-03-25T06:05:19.198Z,64.60
2018-03-25T06:07:48.876Z,64.30
2018-03-25T06:10:22.399Z,64.10
2018-03-25T06:12:52.685Z,64.30
2018-03-25T06:15:23.520Z,64.20
2018-03-25T06:17:53.442Z,64.00
2018-03-25T06:20:26.019Z,64.10
2018-03-25T06:22:55.888Z,64.20
2018-03-25T06:25:28.436Z,65.00
2018-03-25T06:27:59.550Z,63.80
2018-03-25T06:30:33.165Z,63.90
2018-03-25T06:33:03.351Z,63.70
2018-03-25T06:35:33.032Z,63.70
2018-03-25T06:38:03.619Z,63.60
2018-03-25T06:40:36.904Z,63.60
2018-03-25T06:43:06.666Z,64.40
2018-03-25T06:45:38.844Z,64.50
2018-03-25T06:48:09.030Z,64.50
2018-03-25T06:50:41.785Z,63.90
2018-03-25T06:53:11.833Z,63.90
2018-03-25T06:55:44.897Z,63.40
2018-03-25T06:58:14.426Z,63.80
2018-03-25T07:00:48.136Z,63.60
2018-03-25T07:03:17.986Z,63.50
2018-03-25T07:05:50.350Z,63.50
2018-03-25T07:08:20.533Z,63.10
2018-03-25T07:10:52.216Z,63.20
2018-03-25T07:13:21.713Z,63.20
2018-03-25T07:15:55.700Z,63.00
2018-03-25T07:18:25.754Z,63.00
2018-03-25T07:20:59.045Z,62.10
2018-03-25T07:23:28.616Z,61.70
2018-03-25T07:26:01.941Z,61.10
2018-03-25T07:28:31.460Z,61.90
2018-03-25T07:31:05.829Z,62.00
2018-03-25T07:33:35.217Z,62.10
2018-03-25T07:36:08.185Z,61.60
2018-03-25T07:38:38.187Z,61.00
2018-03-25T07:41:11.161Z,60.40
2018-03-25T07:43:40.975Z,59.70
2018-03-25T07:46:13.672Z,59.00
2018-03-25T07:48:43.423Z,60.00
2018-03-25T07:51:15.231Z,59.10
2018-03-25T07:53:44.509Z,60.30
2018-03-25T07:56:17.859Z,58.90
2018-03-25T07:58:47.614Z,59.00
2018-03-25T08:01:20.044Z,56.60
2018-03-25T08:03:49.182Z,56.50
2018-03-25T08:06:22.217Z,55.00
2018-03-25T08:08:51.907Z,54.50
2018-03-25T08:11:24.724Z,55.20
2018-03-25T08:13:54.117Z,56.90
2018-03-25T08:16:26.437Z,53.60
2018-03-25T08:18:55.643Z,53.50
2018-03-25T08:21:28.807Z,55.50
2018-03-25T08:23:58.520Z,55.40
2018-03-25T08:26:31.650Z,54.40
2018-03-25T08:29:01.019Z,51.50
2018-03-25T08:31:43.865Z,50.60
2018-03-25T08:34:13.282Z,52.30
2018-03-25T08:36:42.626Z,49.60
2018-03-25T08:39:12.187Z,49.40
2018-03-25T08:41:41.425Z,49.00
2018-03-25T08:44:10.672Z,48.40
2018-03-25T08:46:42.227Z,48.00
2018-03-25T08:49:11.630Z,49.20
2018-03-25T08:51:53.423Z,47.90
2018-03-25T08:54:22.556Z,47.60
2018-03-25T08:56:52.831Z,47.60
2018-03-25T08:59:22.394Z,47.60
2018-03-25T09:01:51.726Z,47.80
2018-03-25T09:04:21.333Z,47.80
2018-03-25T09:06:54.333Z,49.40
2018-03-25T09:09:23.813Z,48.50
2018-03-25T09:11:56.778Z,45.90
2018-03-25T09:14:26.036Z,45.90
2018-03-25T09:16:59.003Z,45.50
2018-03-25T09:19:28.227Z,46.80
2018-03-25T09:22:09.743Z,44.40
2018-03-25T09:24:40.058Z,44.10
2018-03-25T09:27:09.944Z,43.80
2018-03-25T09:29:39.178Z,43.80
2018-03-25T09:32:11.138Z,43.50
2018-03-25T09:34:40.505Z,42.60
2018-03-25T09:37:18.272Z,41.70
2018-03-25T09:39:48.080Z,41.50
2018-03-25T09:42:17.426Z,39.90
2018-03-25T09:44:47.769Z,40.10
2018-03-25T09:47:18.937Z,42.30
2018-03-25T09:49:48.144Z,42.20
2018-03-25T09:52:21.013Z,39.10
2018-03-25T09:54:50.706Z,40.40
2018-03-25T09:57:23.459Z,39.90
2018-03-25T09:59:52.765Z,39.00
2018-03-25T10:02:27.785Z,38.60
2018-03-25T10:04:57.912Z,36.70
2018-03-25T10:07:31.663Z,38.30
2018-03-25T10:10:01.634Z,38.30
2018-03-25T10:12:31.900Z,38.40
2018-03-25T10:15:01.377Z,38.40
2018-03-25T10:17:35.626Z,36.80
2018-03-25T10:20:06.002Z,36.90
2018-03-25T10:22:38.988Z,36.80
2018-03-25T10:25:09.261Z,39.00
2018-03-25T10:27:39.895Z,39.00
2018-03-25T10:30:08.705Z,38.60
2018-03-25T10:32:42.455Z,36.90
2018-03-25T10:35:12.779Z,37.10
2018-03-25T10:37:45.594Z,37.50
2018-03-25T10:40:15.226Z,36.40
2018-03-25T10:42:50.296Z,37.20
2018-03-25T10:45:19.533Z,36.90
2018-03-25T10:47:51.389Z,34.90
2018-03-25T10:50:20.720Z,36.60
2018-03-25T10:53:02.425Z,36.30
2018-03-25T10:55:32.808Z,36.60
2018-03-25T10:58:02.271Z,36.60
2018-03-25T11:00:31.767Z,37.00
2018-03-25T11:03:01.456Z,34.80
2018-03-25T11:05:31.577Z,33.50
2018-03-25T11:08:05.203Z,34.00
2018-03-25T11:10:34.940Z,34.00
2018-03-25T11:13:07.997Z,32.50
2018-03-25T11:15:37.473Z,33.50
2018-03-25T11:18:19.438Z,32.20
2018-03-25T11:20:48.686Z,34.90
2018-03-25T11:23:18.897Z,31.30
2018-03-25T11:25:49.195Z,34.60
2018-03-25T11:28:18.527Z,34.60
2018-03-25T11:30:48.635Z,33.40
2018-03-25T11:33:19.023Z,33.40
2018-03-25T11:35:48.695Z,32.60
2018-03-25T11:38:21.696Z,33.10
2018-03-25T11:40:51.818Z,33.90
2018-03-25T11:43:22.781Z,32.50
2018-03-25T11:45:51.973Z,31.10
2018-03-25T11:48:24.398Z,34.50
2018-03-25T11:50:53.738Z,30.00
2018-03-25T11:53:30.368Z,30.40
2018-03-25T11:56:00.612Z,33.80
2018-03-25T11:58:30.234Z,33.90
2018-03-25T12:01:00.272Z,31.20
2018-03-25T12:03:33.638Z,31.30
2018-03-25T12:06:02.887Z,32.70
2018-03-25T12:08:36.937Z,29.70
2018-03-25T12:11:06.725Z,29.70
2018-03-25T12:13:39.265Z,31.10
2018-03-25T12:16:08.666Z,31.00
2018-03-25T12:18:51.008Z,33.00
2018-03-25T12:21:21.085Z,31.80
2018-03-25T12:23:50.423Z,31.80
2018-03-25T12:26:20.801Z,32.10
2018-03-25T12:28:50.147Z,32.10
2018-03-25T12:31:20.325Z,32.50
2018-03-25T12:33:51.666Z,32.90
2018-03-25T12:36:21.076Z,33.00
2018-03-25T12:38:54.553Z,33.70
2018-03-25T12:41:26.078Z,34.10
2018-03-25T12:43:56.206Z,34.80
2018-03-25T12:46:25.578Z,31.30
2018-03-25T12:48:59.904Z,31.50
2018-03-25T12:51:30.087Z,31.00
2018-03-25T12:54:02.501Z,31.00
2018-03-25T12:56:33.285Z,33.20
2018-03-25T12:59:06.050Z,33.20
2018-03-25T13:01:35.546Z,31.90
2018-03-25T13:04:08.199Z,31.50
2018-03-25T13:06:37.574Z,31.60
2018-03-25T13:09:21.320Z,31.80
2018-03-25T13:11:50.735Z,32.00
2018-03-25T13:14:21.432Z,31.90
2018-03-25T13:16:50.967Z,32.50
2018-03-25T13:19:21.048Z,31.70
2018-03-25T13:21:50.708Z,31.60
2018-03-25T13:24:20.345Z,32.60
2018-03-25T13:26:49.614Z,32.80
2018-03-25T13:29:22.558Z,33.90
2018-03-25T13:31:51.747Z,32.20
2018-03-25T13:34:24.437Z,30.50
2018-03-25T13:36:54.137Z,31.90
2018-03-25T13:39:27.334Z,32.40
2018-03-25T13:41:56.739Z,33.00
2018-03-25T13:44:29.567Z,32.70
2018-03-25T13:46:58.863Z,34.20
2018-03-25T13:49:40.417Z,34.40
2018-03-25T13:52:11.901Z,32.70
2018-03-25T13:54:42.036Z,33.90
2018-03-25T13:57:11.393Z,33.90
2018-03-25T13:59:41.737Z,35.20
2018-03-25T14:02:11.200Z,35.10
2018-03-25T14:04:40.541Z,35.40
2018-03-25T14:07:10.061Z,34.20
2018-03-25T14:09:42.907Z,33.60
2018-03-25T14:12:12.979Z,33.30
2018-03-25T14:14:44.288Z,33.20
2018-03-25T14:17:13.680Z,33.00
2018-03-25T14:19:56.055Z,34.30
2018-03-25T14:22:25.562Z,34.20
2018-03-25T14:24:54.958Z,35.20
2018-03-25T14:27:24.420Z,35.60
2018-03-25T14:29:54.540Z,34.50
2018-03-25T14:32:23.829Z,34.70
2018-03-25T14:35:05.913Z,34.20
2018-03-25T14:37:36.642Z,35.60
2018-03-25T14:40:07.236Z,36.00
2018-03-25T14:42:37.286Z,33.90
2018-03-25T14:45:07.546Z,34.00
2018-03-25T14:47:36.850Z,34.00
2018-03-25T14:50:06.281Z,34.80
2018-03-25T14:52:35.915Z,37.90
2018-03-25T14:55:09.297Z,35.20
2018-03-25T14:57:39.455Z,35.00
2018-03-25T15:00:16.590Z,34.90
2018-03-25T15:02:45.916Z,33.90
2018-03-25T15:05:16.951Z,34.30
2018-03-25T15:07:47.403Z,37.80
2018-03-25T15:10:20.159Z,37.80
2018-03-25T15:12:49.601Z,35.30
2018-03-25T15:15:23.290Z,35.60
2018-03-25T15:17:52.561Z,35.90
2018-03-25T15:20:23.749Z,35.70
2018-03-25T15:22:53.512Z,36.60
2018-03-25T15:25:26.746Z,36.80
2018-03-25T15:27:56.121Z,36.10
2018-03-25T15:30:29.649Z,38.20
2018-03-25T15:32:58.925Z,36.40
2018-03-25T15:35:31.889Z,36.80
2018-03-25T15:38:02.263Z,38.60
2018-03-25T15:40:44.123Z,38.50
2018-03-25T15:43:13.654Z,37.70
2018-03-25T15:45:43.312Z,38.00
2018-03-25T15:48:13.022Z,38.20
2018-03-25T15:50:43.127Z,38.30
2018-03-25T15:53:12.692Z,38.60
2018-03-25T15:55:43.919Z,39.00
2018-03-25T15:58:14.119Z,39.80
2018-03-25T16:00:47.870Z,39.80
2018-03-25T16:03:17.191Z,39.70
2018-03-25T16:05:50.183Z,39.60
2018-03-25T16:08:21.733Z,39.50
2018-03-25T16:10:54.358Z,40.60
2018-03-25T16:13:23.965Z,40.60
2018-03-25T16:15:57.218Z,41.10
2018-03-25T16:18:26.613Z,40.60
2018-03-25T16:21:00.683Z,40.60
2018-03-25T16:23:30.892Z,40.20
2018-03-25T16:26:07.598Z,40.20
2018-03-25T16:28:36.860Z,40.20
2018-03-25T16:31:06.333Z,40.40
2018-03-25T16:36:12.534Z,41.10
2018-03-25T16:38:43.219Z,42.10
2018-03-25T16:41:13.433Z,42.00
2018-03-25T16:43:42.803Z,42.00
2018-03-25T16:46:14.552Z,41.70
2018-03-25T16:48:44.465Z,41.70
2018-03-25T16:51:17.741Z,42.70
2018-03-25T16:53:48.212Z,42.90
2018-03-25T16:56:17.607Z,42.80
2018-03-25T16:58:47.052Z,43.40
2018-03-25T17:01:24.086Z,42.90
2018-03-25T17:03:53.360Z,43.00
2018-03-25T17:06:22.717Z,42.70
2018-03-25T17:08:52.513Z,42.60
2018-03-25T17:11:25.313Z,42.50
2018-03-25T17:13:54.870Z,42.60
2018-03-25T17:16:28.390Z,43.10
2018-03-25T17:18:57.782Z,43.20
2018-03-25T17:21:35.162Z,44.30
2018-03-25T17:24:04.616Z,43.40
2018-03-25T17:26:34.123Z,44.00
2018-03-25T17:29:04.246Z,44.30
2018-03-25T17:31:37.772Z,44.10
2018-03-25T17:34:07.617Z,44.10
2018-03-25T17:36:39.647Z,44.70
2018-03-25T17:39:09.166Z,44.40
2018-03-25T17:41:47.089Z,45.80
2018-03-25T17:44:16.533Z,45.30
2018-03-25T17:46:46.700Z,44.70
2018-03-25T17:49:16.123Z,44.70
2018-03-25T17:51:46.211Z,44.60
2018-03-25T17:54:17.858Z,45.10
2018-03-25T17:56:50.340Z,45.90
2018-03-25T17:59:20.457Z,46.50
2018-03-25T18:01:53.439Z,46.50
2018-03-25T18:04:22.801Z,45.90
2018-03-25T18:06:56.311Z,46.70
2018-03-25T18:09:26.755Z,46.60
2018-03-25T18:12:00.037Z,46.50
2018-03-25T18:14:29.472Z,46.40
2018-03-25T18:17:02.447Z,46.80
2018-03-25T18:19:32.219Z,47.20
2018-03-25T18:22:09.448Z,46.90
2018-03-25T18:24:39.066Z,47.30
2018-03-25T18:27:08.515Z,47.40
2018-03-25T18:29:38.181Z,47.60
2018-03-25T18:32:14.870Z,48.00
2018-03-25T18:34:44.223Z,48.10
2018-03-25T18:37:15.220Z,47.40
2018-03-25T18:39:45.299Z,47.70
2018-03-25T18:42:16.043Z,47.80
2018-03-25T18:44:45.631Z,48.70
2018-03-25T18:47:18.649Z,48.00
2018-03-25T18:49:48.055Z,48.40
2018-03-25T18:52:20.482Z,48.20
2018-03-25T18:54:49.820Z,48.20
2018-03-25T18:57:26.715Z,48.30
2018-03-25T18:59:56.468Z,48.10
2018-03-25T19:02:28.127Z,49.00
2018-03-25T19:04:58.377Z,48.90
2018-03-25T19:07:27.896Z,48.90
2018-03-25T19:09:58.257Z,48.40
2018-03-25T19:12:30.682Z,48.40
2018-03-25T19:15:00.239Z,48.80
2018-03-25T19:17:32.127Z,49.30
2018-03-25T19:20:01.550Z,49.30
2018-03-25T19:22:35.172Z,50.00
2018-03-25T19:25:04.506Z,50.40
2018-03-25T19:27:36.357Z,49.80
2018-03-25T19:30:06.508Z,50.10
2018-03-25T19:32:43.991Z,50.10
2018-03-25T19:35:13.384Z,50.80
2018-03-25T19:37:43.466Z,49.60
2018-03-25T19:40:14.168Z,49.60
2018-03-25T19:42:45.066Z,49.60
2018-03-25T19:45:14.494Z,49.70
2018-03-25T19:47:48.551Z,49.90
2018-03-25T19:50:18.677Z,49.40
2018-03-25T19:52:51.212Z,49.40
2018-03-25T19:55:21.711Z,51.00
2018-03-25T19:57:58.216Z,50.50
2018-03-25T20:00:27.503Z,49.60
2018-03-25T20:02:57.029Z,50.00
2018-03-25T20:05:27.446Z,49.70
2018-03-25T20:07:59.182Z,49.90
2018-03-25T20:10:29.553Z,49.50
2018-03-25T20:13:06.763Z,49.50
2018-03-25T20:15:37.379Z,50.30
2018-03-25T20:18:07.431Z,50.90
2018-03-25T20:20:36.714Z,50.90
2018-03-25T20:23:10.814Z,51.10
2018-03-25T20:25:41.188Z,50.00
2018-03-25T20:28:14.424Z,50.00
2018-03-25T20:30:44.976Z,50.30
2018-03-25T20:33:16.150Z,50.40
2018-03-25T20:35:45.489Z,50.70
2018-03-25T20:38:18.993Z,50.40
2018-03-25T20:40:49.173Z,50.00
2018-03-25T20:43:20.267Z,49.90
2018-03-25T20:45:50.682Z,49.70
2018-03-25T20:48:24.317Z,49.90
2018-03-25T20:50:53.748Z,49.90
2018-03-25T20:53:26.847Z,49.20
2018-03-25T20:55:56.515Z,49.20
2018-03-25T20:58:26.324Z,49.90
2018-03-25T21:00:55.696Z,50.20
2018-03-25T21:03:33.154Z,52.00
2018-03-25T21:06:02.447Z,52.00
2018-03-25T21:08:32.700Z,50.10
2018-03-25T21:11:02.957Z,50.30
2018-03-25T21:13:34.000Z,50.30
2018-03-25T21:16:03.357Z,50.60
2018-03-25T21:18:43.104Z,50.20
2018-03-25T21:21:13.235Z,50.80
2018-03-25T21:23:42.518Z,50.70
2018-03-25T21:26:13.287Z,50.10
2018-03-25T21:28:42.490Z,50.20
2018-03-25T21:31:12.794Z,50.60
2018-03-25T21:33:47.301Z,50.80
2018-03-25T21:36:18.342Z,51.10
2018-03-25T21:38:48.885Z,51.00
2018-03-25T21:41:20.174Z,51.00
2018-03-25T21:43:52.432Z,51.00
2018-03-25T21:46:22.812Z,51.80
2018-03-25T21:48:56.545Z,51.40
2018-03-25T21:51:25.898Z,51.40
2018-03-25T21:53:59.083Z,52.10
2018-03-25T21:56:28.853Z,52.10
2018-03-25T21:59:02.892Z,52.40
2018-03-25T22:01:33.441Z,52.20
2018-03-25T22:04:07.301Z,52.80
2018-03-25T22:06:37.820Z,52.80
2018-03-25T22:09:14.856Z,52.70
2018-03-25T22:11:45.409Z,52.50
2018-03-25T22:14:15.617Z,52.70
2018-03-25T22:16:45.385Z,52.60
2018-03-25T22:19:17.266Z,52.90
2018-03-25T22:21:46.696Z,52.70
2018-03-25T22:24:19.620Z,53.00
2018-03-25T22:26:49.084Z,53.00
2018-03-25T22:29:22.276Z,53.70
2018-03-25T22:31:51.664Z,53.40
2018-03-25T22:34:25.015Z,54.00
2018-03-25T22:36:55.655Z,54.00
2018-03-25T22:39:25.664Z,54.40
2018-03-25T22:41:54.929Z,54.60
2018-03-25T22:44:28.115Z,54.70
2018-03-25T22:46:58.203Z,54.00
2018-03-25T22:49:31.047Z,54.00
2018-03-25T22:52:01.785Z,54.90
2018-03-25T22:54:32.566Z,54.90
2018-03-25T22:57:02.795Z,55.00
2018-03-25T22:59:36.194Z,54.40
2018-03-25T23:02:06.722Z,55.10
2018-03-25T23:04:38.282Z,54.50
2018-03-25T23:07:07.709Z,54.50
2018-03-25T23:09:44.856Z,55.00
2018-03-25T23:12:15.219Z,54.80
2018-03-25T23:14:44.625Z,54.90
2018-03-25T23:17:14.069Z,54.60
2018-03-25T23:19:47.664Z,54.60
2018-03-25T23:22:16.956Z,54.90
2018-03-25T23:24:50.038Z,55.30
2018-03-25T23:27:19.706Z,55.10
2018-03-25T23:29:53.010Z,55.60
2018-03-25T23:32:22.270Z,55.60
2018-03-25T23:34:56.687Z,55.60
2018-03-25T23:37:27.107Z,55.10
2018-03-25T23:39:58.779Z,55.30
2018-03-25T23:42:29.230Z,55.30
2018-03-25T23:45:02.320Z,55.30
2018-03-25T23:47:31.922Z,55.80
2018-03-25T23:50:05.557Z,55.80
2018-03-25T23:52:35.150Z,56.20
2018-03-25T23:55:08.893Z,56.10
2018-03-25T23:57:39.273Z,56.10
